< Typhoon 195707 1957 Season Typhoon 195709 >
Typhoon 195708 (NO-NAME)
General InformationTrack Information on Google Maps || Disaster Info.ResourceGoogle EarthGE AnimationAtom FeedGeoJSON
Detalied Best Track (Time Zone = UTC)
Year Month Day Hour Lat. Long. Pressure (hPa) Wind (kt) Class Image Chart
1957 8 13 18 16.7 118.5 1000 0 2 -- Chart
1957 8 14 00 16.4 118.2 1002 0 2 -- Chart
1957 8 14 06 16.3 117.9 1000 0 2 -- Chart
1957 8 14 12 16.2 117.6 1000 0 2 -- Chart
1957 8 14 18 16.2 117.0 998 0 2 -- Chart
1957 8 15 00 17.1 116.4 998 0 2 -- Chart
1957 8 15 06 17.8 116.2 998 0 2 -- Chart
1957 8 15 12 18.3 116.0 996 0 2 -- Chart
1957 8 15 18 18.5 115.7 996 0 2 -- Chart
1957 8 16 00 18.1 115.2 996 0 2 -- Chart
1957 8 16 06 17.9 114.6 994 0 9 -- Chart
1957 8 16 12 18.0 113.9 994 0 9 -- Chart
1957 8 16 18 18.1 113.3 994 0 9 -- Chart
1957 8 17 00 18.4 112.8 994 0 9 -- Chart
1957 8 17 06 18.5 112.4 990 0 9 -- Chart
1957 8 17 12 18.8 112.0 990 0 9 -- Chart
1957 8 17 18 18.9 111.8 988 0 9 -- Chart
1957 8 18 00 19.0 111.3 984 0 9 -- Chart
1957 8 18 06 19.0 110.5 984 0 9 -- Chart
1957 8 18 12 19.0 110.2 984 0 9 -- Chart
1957 8 18 18 19.0 110.2 986 0 9 -- Chart
1957 8 19 00 19.0 110.2 988 0 9 -- Chart
1957 8 19 06 19.0 110.2 988 0 9 -- Chart
1957 8 19 12 19.4 110.4 989 0 9 -- Chart
1957 8 19 18 19.6 110.6 990 0 9 -- Chart
1957 8 20 00 20.0 110.0 990 0 2 -- Chart
1957 8 20 06 20.5 111.5 992 0 2 -- Chart
1957 8 20 12 21.5 111.5 992 0 2 -- Chart
1957 8 20 18 22.1 111.5 992 0 2 -- Chart
1957 8 21 00 23.5 111.8 996 0 6 -- Chart
1957 8 21 06 24.1 112.4 998 0 6 -- Chart
1957 8 21 12 24.5 112.9 998 0 6 -- Chart
1957 8 21 18 25.0 113.5 998 0 6 -- Chart
1957 8 22 00 25.3 114.0 1000 0 6 -- Chart
1957 8 22 06 25.6 114.5 998 0 6 -- Chart
1957 8 22 12 25.8 115.0 998 0 6 -- Chart
1957 8 22 18 26.0 115.6 1000 0 6 -- Chart
1957 8 23 00 26.3 116.2 1002 0 6 -- Chart
Japan Meteorological Agency Best Track Data | Correction Date : 1989-06-01
< Typhoon 195707 1957 Season Typhoon 195709 >

Help